Kathmandu, Nepal

10:50 PM NPT on July 22, 2014 (GMT +0545)
patan (ILALITPU2) Elev 4324 ft | 27.68 °N, 85.32 °E | Change Station

Current weather conditions updated 19 seconds ago

Mostly Cloudy
Mostly Cloudy
71.7 °F
Feels Like 71 °F
N
0.0
Wind Variable Wind from SSW
Gusts 0.0 mph

Tomorrow is forecast to be Much Cooler than today. Thunderstorms.

Today
High -- | Low -- °F
--% Chance of Precip.
Yesterday
High -- | Low -- °F
Precip. -- in
5:21 AM 6:58 PM
Waning Crescent, 16% visible
Pressure 29.80 in
Visibility 4.3 miles
Clouds Few 1500 ft
Scattered Clouds 2500 ft
Mostly Cloudy 10000 ft
Heat Index 71 °F
Dew Point 66 °F
Humidity 82%
Rainfall 1.04 in
Snow Depth Not available.
UV 0 out of 12
Pollen Not available.
Air Quality Not available.
Flu Activity Not available.
METAR VNKT 221550Z 00000KT 7000 FEW015 SCT025 BKN100 24/20 Q1009 NOSIG

More Conditions Fewer Conditions

Pressure 29.80 in
Visibility 4.3 miles
Clouds Few 1500 ft
Scattered Clouds 2500 ft
Mostly Cloudy 10000 ft
Heat Index 71 °F
Dew Point 66 °F
Humidity 82%
Rainfall 1.04 in
Snow Depth Not available.
UV 0 out of 12
Pollen Not available.
Air Quality Not available.
Flu Activity Not available.
METAR VNKT 221550Z 00000KT 7000 FEW015 SCT025 BKN100 24/20 Q1009 NOSIG

More Conditions Fewer Conditions

10-Day Weather Forecast

LIGHTNING

Thunderstorms are forecast for your area. Cloud conditions might be right for producing strikes in the next few days, though lightning itself cannot be forecasted.

Lightning is a visible electrical discharge produced by a thunderstorm, based on the build up of oppositely charged particles within a cloud and from cloud to ground.

Know how to stay safe in a lightning storm.

Check out these Lightning WunderPhotos!

Almanac

Astronomy

Jul. 22, 2014 Rise Set
Actual Time 5:21 AM NPT 6:58 PM NPT
Civil Twilight 4:55 AM NPT 7:24 PM NPT
Nautical Twilight 4:24 AM NPT 7:55 PM NPT
Astronomical Twilight 3:51 AM NPT 8:27 PM NPT
Moon 1:28 AM NPT 3:13 PM NPT
Length of Visible Light 14h 29m
Length of Day
13h 37m
Tomorrow will be 1m 0s shorter.
Waning Crescent, 16% of the Moon is Illuminated
Today
Waning Crescent
Jul 26
New
Aug 3
First Quarter
Aug 10
Full
Aug 17
Last Quarter

Today's Extremes

Country Highs Country Lows

Community

WunderPhotos

Upload Photos

1,736,294 photos uploaded!

Nearby

Snow Depth

Not available.

Earthquake Activity

City Distance Mag. Time & Date
No recent earthquake activity has been reported nearby.
Minimum magnitude displayed is 2.5.

Coastal Water Temperatures

Place Temperature
No Stations Reporting

Nearby Weather Stations

Station Location Temp. Heat Index Dew Point Humidity Wind Precip. Elev Updated Type
patan, PATAN 71.7 °F 71 °F 66 °F 82% SSW  at  0.0 mph 0.00 in / hr 4324 ft 10:50 PM NPT Rapid Fire
New Road, Kathmandu 73.6 °F 72 °F 70 °F 90% SW  at  0.0 mph 0.00 in / hr 4301 ft 10:40 PM NPT Normal

Show More Stations Show Fewer Stations